sensor_id;sensor_type;location;lat;lon;timestamp;pressure;altitude;pressure_sealevel;temperature;humidity
75521;BME280;64102;48.628;9.002;2023-08-12T00:01:04;96425.19;;;17.02;100.00
75521;BME280;64102;48.628;9.002;2023-08-12T00:03:30;96421.59;;;17.04;100.00
75521;BME280;64102;48.628;9.002;2023-08-12T00:05:56;96423.50;;;17.10;100.00
75521;BME280;64102;48.628;9.002;2023-08-12T00:08:21;96417.69;;;17.08;100.00
75521;BME280;64102;48.628;9.002;2023-08-12T00:10:47;96411.53;;;17.00;100.00
75521;BME280;64102;48.628;9.002;2023-08-12T00:13:12;96406.31;;;16.92;100.00
75521;BME280;64102;48.628;9.002;2023-08-12T00:15:40;96407.03;;;16.86;100.00
75521;BME280;64102;48.628;9.002;2023-08-12T00:18:06;96401.84;;;16.78;100.00
75521;BME280;64102;48.628;9.002;2023-08-12T00:20:32;96401.81;;;16.86;100.00
75521;BME280;64102;48.628;9.002;2023-08-12T00:22:57;96398.84;;;16.89;100.00
75521;BME280;64102;48.628;9.002;2023-08-12T00:25:22;96394.09;;;16.93;100.00
75521;BME280;64102;48.628;9.002;2023-08-12T00:27:48;96398.66;;;16.99;100.00
75521;BME280;64102;48.628;9.002;2023-08-12T00:30:13;96393.78;;;16.96;100.00
75521;BME280;64102;48.628;9.002;2023-08-12T00:32:39;96400.66;;;16.89;100.00
75521;BME280;64102;48.628;9.002;2023-08-12T00:35:06;96399.53;;;16.83;100.00
75521;BME280;64102;48.628;9.002;2023-08-12T00:37:31;96390.72;;;16.84;100.00
75521;BME280;64102;48.628;9.002;2023-08-12T00:39:57;96396.13;;;16.83;100.00
75521;BME280;64102;48.628;9.002;2023-08-12T00:42:22;96389.28;;;16.82;100.00
75521;BME280;64102;48.628;9.002;2023-08-12T00:44:47;96394.50;;;16.82;100.00
75521;BME280;64102;48.628;9.002;2023-08-12T00:47:13;96388.31;;;16.75;100.00
75521;BME280;64102;48.628;9.002;2023-08-12T00:49:39;96390.00;;;16.68;100.00
75521;BME280;64102;48.628;9.002;2023-08-12T00:52:06;96389.69;;;16.63;100.00
75521;BME280;64102;48.628;9.002;2023-08-12T00:54:31;96382.66;;;16.63;100.00
75521;BME280;64102;48.628;9.002;2023-08-12T00:56:57;96380.69;;;16.57;100.00
75521;BME280;64102;48.628;9.002;2023-08-12T00:59:23;96383.34;;;16.49;100.00
75521;BME280;64102;48.628;9.002;2023-08-12T01:01:49;96383.69;;;16.46;100.00
75521;BME280;64102;48.628;9.002;2023-08-12T01:04:14;96380.09;;;16.47;100.00
75521;BME280;64102;48.628;9.002;2023-08-12T01:06:40;96382.72;;;16.47;100.00
75521;BME280;64102;48.628;9.002;2023-08-12T01:09:06;96376.81;;;16.53;100.00
75521;BME280;64102;48.628;9.002;2023-08-12T01:11:35;96379.75;;;16.58;100.00
75521;BME280;64102;48.628;9.002;2023-08-12T01:16:57;96372.25;;;16.55;100.00
75521;BME280;64102;48.628;9.002;2023-08-12T01:19:33;96362.81;;;16.54;100.00
75521;BME280;64102;48.628;9.002;2023-08-12T01:22:01;96358.56;;;16.53;100.00
75521;BME280;64102;48.628;9.002;2023-08-12T01:24:27;96361.69;;;16.48;100.00
75521;BME280;64102;48.628;9.002;2023-08-12T01:26:52;96357.78;;;16.44;100.00
75521;BME280;64102;48.628;9.002;2023-08-12T01:29:18;96350.13;;;16.43;100.00
75521;BME280;64102;48.628;9.002;2023-08-12T01:34:42;96339.41;;;16.46;100.00
75521;BME280;64102;48.628;9.002;2023-08-12T01:37:11;96341.50;;;16.59;100.00
75521;BME280;64102;48.628;9.002;2023-08-12T01:39:39;96340.78;;;16.73;100.00
75521;BME280;64102;48.628;9.002;2023-08-12T01:42:06;96344.00;;;16.83;100.00
75521;BME280;64102;48.628;9.002;2023-08-12T01:44:32;96343.75;;;16.92;100.00
75521;BME280;64102;48.628;9.002;2023-08-12T01:46:59;96336.59;;;16.94;100.00
75521;BME280;64102;48.628;9.002;2023-08-12T01:49:24;96337.22;;;16.96;100.00
75521;BME280;64102;48.628;9.002;2023-08-12T01:51:50;96333.63;;;16.97;100.00
75521;BME280;64102;48.628;9.002;2023-08-12T01:54:15;96334.28;;;16.99;100.00
75521;BME280;64102;48.628;9.002;2023-08-12T01:56:41;96334.28;;;16.99;100.00
75521;BME280;64102;48.628;9.002;2023-08-12T01:59:06;96340.31;;;17.00;100.00
75521;BME280;64102;48.628;9.002;2023-08-12T02:01:31;96338.97;;;17.04;100.00
75521;BME280;64102;48.628;9.002;2023-08-12T02:03:57;96335.22;;;17.07;100.00
75521;BME280;64102;48.628;9.002;2023-08-12T02:06:22;96340.72;;;17.12;100.00
75521;BME280;64102;48.628;9.002;2023-08-12T02:08:47;96335.97;;;17.15;100.00
75521;BME280;64102;48.628;9.002;2023-08-12T02:11:13;96333.66;;;17.20;100.00
75521;BME280;64102;48.628;9.002;2023-08-12T02:13:38;96330.44;;;17.18;100.00
75521;BME280;64102;48.628;9.002;2023-08-12T02:16:03;96336.91;;;17.22;100.00
75521;BME280;64102;48.628;9.002;2023-08-12T02:18:29;96332.78;;;17.28;100.00
75521;BME280;64102;48.628;9.002;2023-08-12T02:20:54;96331.47;;;17.32;100.00
75521;BME280;64102;48.628;9.002;2023-08-12T02:23:19;96334.69;;;17.34;100.00
75521;BME280;64102;48.628;9.002;2023-08-12T02:25:45;96327.34;;;17.37;100.00
75521;BME280;64102;48.628;9.002;2023-08-12T02:28:11;96323.88;;;17.45;100.00
75521;BME280;64102;48.628;9.002;2023-08-12T02:30:36;96327.75;;;17.49;100.00
75521;BME280;64102;48.628;9.002;2023-08-12T02:33:02;96321.88;;;17.47;100.00
75521;BME280;64102;48.628;9.002;2023-08-12T02:35:27;96313.44;;;17.45;100.00
75521;BME280;64102;48.628;9.002;2023-08-12T02:37:52;96313.97;;;17.40;100.00
75521;BME280;64102;48.628;9.002;2023-08-12T02:40:18;96306.28;;;17.39;100.00
75521;BME280;64102;48.628;9.002;2023-08-12T02:42:43;96315.47;;;17.35;100.00
75521;BME280;64102;48.628;9.002;2023-08-12T02:45:09;96308.03;;;17.24;100.00
75521;BME280;64102;48.628;9.002;2023-08-12T02:47:34;96314.72;;;17.26;100.00
75521;BME280;64102;48.628;9.002;2023-08-12T02:49:59;96313.66;;;17.35;100.00
75521;BME280;64102;48.628;9.002;2023-08-12T02:52:25;96314.75;;;17.41;100.00
75521;BME280;64102;48.628;9.002;2023-08-12T02:54:50;96303.63;;;17.47;100.00
75521;BME280;64102;48.628;9.002;2023-08-12T02:57:16;96306.53;;;17.52;100.00
75521;BME280;64102;48.628;9.002;2023-08-12T02:59:41;96313.97;;;17.55;100.00
75521;BME280;64102;48.628;9.002;2023-08-12T03:02:06;96310.41;;;17.56;100.00
75521;BME280;64102;48.628;9.002;2023-08-12T03:04:32;96306.16;;;17.55;100.00
75521;BME280;64102;48.628;9.002;2023-08-12T03:06:57;96300.63;;;17.58;100.00
75521;BME280;64102;48.628;9.002;2023-08-12T03:09:22;96305.84;;;17.58;100.00
75521;BME280;64102;48.628;9.002;2023-08-12T03:11:48;96313.31;;;17.61;100.00
75521;BME280;64102;48.628;9.002;2023-08-12T03:14:13;96309.72;;;17.62;100.00
75521;BME280;64102;48.628;9.002;2023-08-12T03:16:38;96307.75;;;17.64;100.00
75521;BME280;64102;48.628;9.002;2023-08-12T03:19:04;96304.78;;;17.67;100.00
75521;BME280;64102;48.628;9.002;2023-08-12T03:21:29;96305.59;;;17.68;100.00
75521;BME280;64102;48.628;9.002;2023-08-12T03:23:54;96301.81;;;17.70;100.00
75521;BME280;64102;48.628;9.002;2023-08-12T03:26:20;96302.09;;;17.90;100.00
75521;BME280;64102;48.628;9.002;2023-08-12T03:28:45;96290.78;;;17.98;100.00
75521;BME280;64102;48.628;9.002;2023-08-12T03:31:11;96287.56;;;18.10;100.00
75521;BME280;64102;48.628;9.002;2023-08-12T03:33:36;96273.25;;;18.21;100.00
75521;BME280;64102;48.628;9.002;2023-08-12T03:36:01;96282.66;;;18.22;100.00
75521;BME280;64102;48.628;9.002;2023-08-12T03:38:27;96285.66;;;18.33;100.00
75521;BME280;64102;48.628;9.002;2023-08-12T03:40:52;96277.88;;;18.40;100.00
75521;BME280;64102;48.628;9.002;2023-08-12T03:43:17;96281.34;;;18.55;100.00
75521;BME280;64102;48.628;9.002;2023-08-12T03:45:43;96284.81;;;18.62;100.00
75521;BME280;64102;48.628;9.002;2023-08-12T03:48:10;96288.63;;;18.60;100.00
75521;BME280;64102;48.628;9.002;2023-08-12T03:50:39;96290.88;;;18.63;100.00
75521;BME280;64102;48.628;9.002;2023-08-12T03:53:05;96287.00;;;18.59;100.00
75521;BME280;64102;48.628;9.002;2023-08-12T03:55:31;96296.72;;;18.50;100.00
75521;BME280;64102;48.628;9.002;2023-08-12T03:57:58;96292.41;;;18.43;100.00
75521;BME280;64102;48.628;9.002;2023-08-12T04:00:23;96288.59;;;18.45;100.00
75521;BME280;64102;48.628;9.002;2023-08-12T04:02:49;96284.75;;;18.41;100.00
75521;BME280;64102;48.628;9.002;2023-08-12T04:05:14;96283.75;;;18.42;100.00
75521;BME280;64102;48.628;9.002;2023-08-12T04:07:39;96290.94;;;18.40;100.00
75521;BME280;64102;48.628;9.002;2023-08-12T04:10:05;96287.34;;;18.41;100.00
75521;BME280;64102;48.628;9.002;2023-08-12T04:12:30;96283.94;;;18.41;100.00
75521;BME280;64102;48.628;9.002;2023-08-12T04:14:56;96283.75;;;18.42;100.00
75521;BME280;64102;48.628;9.002;2023-08-12T04:17:21;96287.44;;;18.48;100.00
75521;BME280;64102;48.628;9.002;2023-08-12T04:19:47;96287.97;;;18.58;100.00
75521;BME280;64102;48.628;9.002;2023-08-12T04:22:12;96286.06;;;18.66;100.00
75521;BME280;64102;48.628;9.002;2023-08-12T04:24:37;96284.97;;;18.75;100.00
75521;BME280;64102;48.628;9.002;2023-08-12T04:27:03;96288.66;;;18.81;99.91
75521;BME280;64102;48.628;9.002;2023-08-12T04:29:28;96287.50;;;18.84;100.00
75521;BME280;64102;48.628;9.002;2023-08-12T04:31:53;96293.16;;;18.87;100.00
75521;BME280;64102;48.628;9.002;2023-08-12T04:34:19;96296.81;;;18.93;99.95
75521;BME280;64102;48.628;9.002;2023-08-12T04:36:44;96292.88;;;18.97;99.03
75521;BME280;64102;48.628;9.002;2023-08-12T04:39:10;96289.50;;;19.03;98.51
75521;BME280;64102;48.628;9.002;2023-08-12T04:41:35;96290.94;;;19.05;98.36
75521;BME280;64102;48.628;9.002;2023-08-12T04:44:04;96288.75;;;19.09;99.15
75521;BME280;64102;48.628;9.002;2023-08-12T04:46:29;96284.09;;;19.04;98.16
75521;BME280;64102;48.628;9.002;2023-08-12T04:48:54;96276.41;;;19.03;98.78
75521;BME280;64102;48.628;9.002;2023-08-12T04:51:20;96278.84;;;19.04;98.63
75521;BME280;64102;48.628;9.002;2023-08-12T04:53:45;96278.03;;;19.04;99.29
75521;BME280;64102;48.628;9.002;2023-08-12T04:56:11;96282.06;;;19.06;99.18
75521;BME280;64102;48.628;9.002;2023-08-12T04:58:36;96287.31;;;19.06;98.68
75521;BME280;64102;48.628;9.002;2023-08-12T05:01:01;96287.94;;;19.08;99.46
75521;BME280;64102;48.628;9.002;2023-08-12T05:03:28;96285.06;;;19.03;100.00
75521;BME280;64102;48.628;9.002;2023-08-12T05:05:53;96294.72;;;19.03;100.00
75521;BME280;64102;48.628;9.002;2023-08-12T05:08:19;96286.88;;;19.03;100.00
75521;BME280;64102;48.628;9.002;2023-08-12T05:10:47;96285.34;;;19.08;100.00
75521;BME280;64102;48.628;9.002;2023-08-12T05:13:13;96289.00;;;19.14;100.00
75521;BME280;64102;48.628;9.002;2023-08-12T05:15:38;96289.75;;;19.08;100.00
75521;BME280;64102;48.628;9.002;2023-08-12T05:18:05;96296.44;;;19.10;100.00
75521;BME280;64102;48.628;9.002;2023-08-12T05:20:30;96290.56;;;19.08;100.00
75521;BME280;64102;48.628;9.002;2023-08-12T05:22:55;96293.34;;;19.07;100.00
75521;BME280;64102;48.628;9.002;2023-08-12T05:25:21;96286.16;;;19.09;100.00
75521;BME280;64102;48.628;9.002;2023-08-12T05:27:46;96283.34;;;19.10;100.00
75521;BME280;64102;48.628;9.002;2023-08-12T05:30:12;96286.19;;;19.15;100.00
75521;BME280;64102;48.628;9.002;2023-08-12T05:32:37;96289.88;;;19.21;100.00
75521;BME280;64102;48.628;9.002;2023-08-12T05:35:03;96292.38;;;19.29;100.00
75521;BME280;64102;48.628;9.002;2023-08-12T05:37:28;96294.81;;;19.31;100.00
75521;BME280;64102;48.628;9.002;2023-08-12T05:39:54;96303.09;;;19.34;100.00
75521;BME280;64102;48.628;9.002;2023-08-12T05:42:19;96294.25;;;19.35;100.00
75521;BME280;64102;48.628;9.002;2023-08-12T05:44:44;96290.25;;;19.39;100.00
75521;BME280;64102;48.628;9.002;2023-08-12T05:47:10;96290.00;;;19.55;98.64
75521;BME280;64102;48.628;9.002;2023-08-12T05:49:35;96280.66;;;19.46;100.00
75521;BME280;64102;48.628;9.002;2023-08-12T05:52:00;96292.06;;;19.39;100.00
75521;BME280;64102;48.628;9.002;2023-08-12T05:54:26;96304.31;;;19.38;100.00
75521;BME280;64102;48.628;9.002;2023-08-12T05:56:52;96305.13;;;19.39;100.00
75521;BME280;64102;48.628;9.002;2023-08-12T05:59:17;96305.03;;;19.47;100.00
75521;BME280;64102;48.628;9.002;2023-08-12T06:01:42;96302.25;;;19.48;100.00
75521;BME280;64102;48.628;9.002;2023-08-12T06:04:08;96302.34;;;19.61;100.00
75521;BME280;64102;48.628;9.002;2023-08-12T06:06:33;96304.94;;;19.83;100.00
75521;BME280;64102;48.628;9.002;2023-08-12T06:08:58;96301.88;;;20.07;100.00
75521;BME280;64102;48.628;9.002;2023-08-12T06:11:24;96297.53;;;20.21;100.00
75521;BME280;64102;48.628;9.002;2023-08-12T06:13:49;96295.41;;;20.31;100.00
75521;BME280;64102;48.628;9.002;2023-08-12T06:16:14;96290.75;;;20.74;100.00
75521;BME280;64102;48.628;9.002;2023-08-12T06:18:40;96297.97;;;21.19;97.91
75521;BME280;64102;48.628;9.002;2023-08-12T06:21:06;96297.19;;;21.32;96.05
75521;BME280;64102;48.628;9.002;2023-08-12T06:23:31;96294.56;;;21.45;94.21
75521;BME280;64102;48.628;9.002;2023-08-12T06:25:56;96293.16;;;21.75;89.63
75521;BME280;64102;48.628;9.002;2023-08-12T06:28:22;96292.50;;;22.32;87.15
75521;BME280;64102;48.628;9.002;2023-08-12T06:30:47;96285.16;;;23.05;82.68
75521;BME280;64102;48.628;9.002;2023-08-12T06:33:14;96292.84;;;23.70;79.33
75521;BME280;64102;48.628;9.002;2023-08-12T06:35:39;96286.75;;;23.94;75.99
75521;BME280;64102;48.628;9.002;2023-08-12T06:38:05;96286.91;;;23.99;77.59
75521;BME280;64102;48.628;9.002;2023-08-12T06:40:30;96280.38;;;24.63;71.37
75521;BME280;64102;48.628;9.002;2023-08-12T06:42:56;96272.09;;;24.77;67.88
75521;BME280;64102;48.628;9.002;2023-08-12T06:45:21;96279.31;;;25.41;62.62
75521;BME280;64102;48.628;9.002;2023-08-12T06:47:47;96276.00;;;25.46;63.15
75521;BME280;64102;48.628;9.002;2023-08-12T06:50:12;96275.53;;;26.02;60.43
75521;BME280;64102;48.628;9.002;2023-08-12T06:52:37;96277.59;;;26.23;58.58
75521;BME280;64102;48.628;9.002;2023-08-12T06:55:03;96274.84;;;26.07;58.19
75521;BME280;64102;48.628;9.002;2023-08-12T06:57:28;96278.84;;;26.09;57.85
75521;BME280;64102;48.628;9.002;2023-08-12T06:59:54;96277.34;;;25.78;58.44
75521;BME280;64102;48.628;9.002;2023-08-12T07:02:19;96275.50;;;25.26;61.06
75521;BME280;64102;48.628;9.002;2023-08-12T07:04:44;96279.47;;;24.69;61.94
75521;BME280;64102;48.628;9.002;2023-08-12T07:07:10;96284.09;;;24.91;61.72
75521;BME280;64102;48.628;9.002;2023-08-12T07:09:35;96288.31;;;25.52;57.99
75521;BME280;64102;48.628;9.002;2023-08-12T07:12:01;96282.50;;;25.62;57.86
75521;BME280;64102;48.628;9.002;2023-08-12T07:14:29;96273.41;;;25.16;57.11
75521;BME280;64102;48.628;9.002;2023-08-12T07:16:55;96275.28;;;24.98;58.38
75521;BME280;64102;48.628;9.002;2023-08-12T07:19:20;96272.59;;;25.16;58.49
75521;BME280;64102;48.628;9.002;2023-08-12T07:21:45;96278.06;;;25.44;56.80
75521;BME280;64102;48.628;9.002;2023-08-12T07:24:11;96267.09;;;25.59;56.52
75521;BME280;64102;48.628;9.002;2023-08-12T07:26:36;96274.81;;;26.30;54.78
75521;BME280;64102;48.628;9.002;2023-08-12T07:29:01;96282.97;;;26.40;53.18
75521;BME280;64102;48.628;9.002;2023-08-12T07:31:27;96275.78;;;26.24;53.38
75521;BME280;64102;48.628;9.002;2023-08-12T07:33:52;96274.16;;;26.23;52.94
75521;BME280;64102;48.628;9.002;2023-08-12T07:36:17;96280.09;;;25.95;55.38
75521;BME280;64102;48.628;9.002;2023-08-12T07:38:43;96272.63;;;25.57;56.34
75521;BME280;64102;48.628;9.002;2023-08-12T07:41:08;96275.03;;;26.17;54.95
75521;BME280;64102;48.628;9.002;2023-08-12T07:43:33;96272.88;;;26.37;53.43
75521;BME280;64102;48.628;9.002;2023-08-12T07:45:59;96281.44;;;26.67;52.18
75521;BME280;64102;48.628;9.002;2023-08-12T07:48:24;96277.97;;;26.67;52.15
75521;BME280;64102;48.628;9.002;2023-08-12T07:50:59;96272.41;;;26.92;50.61
75521;BME280;64102;48.628;9.002;2023-08-12T07:53:25;96271.59;;;27.48;49.32
75521;BME280;64102;48.628;9.002;2023-08-12T07:55:51;96276.94;;;27.08;49.95
75521;BME280;64102;48.628;9.002;2023-08-12T07:58:16;96279.31;;;27.21;48.89
75521;BME280;64102;48.628;9.002;2023-08-12T08:00:42;96280.34;;;26.40;51.58
75521;BME280;64102;48.628;9.002;2023-08-12T08:03:07;96283.47;;;25.49;53.77
75521;BME280;64102;48.628;9.002;2023-08-12T08:05:32;96274.13;;;25.65;53.91
75521;BME280;64102;48.628;9.002;2023-08-12T08:07:58;96278.25;;;25.72;53.89
75521;BME280;64102;48.628;9.002;2023-08-12T08:10:23;96267.69;;;25.84;53.66
75521;BME280;64102;48.628;9.002;2023-08-12T08:12:49;96272.88;;;26.25;52.61
75521;BME280;64102;48.628;9.002;2023-08-12T08:15:14;96275.31;;;27.07;51.55
75521;BME280;64102;48.628;9.002;2023-08-12T08:17:40;96271.03;;;27.63;49.39
75521;BME280;64102;48.628;9.002;2023-08-12T08:20:06;96266.06;;;28.38;45.93
75521;BME280;64102;48.628;9.002;2023-08-12T08:22:32;96270.72;;;28.91;45.26
75521;BME280;64102;48.628;9.002;2023-08-12T08:24:58;96270.13;;;29.38;44.15
75521;BME280;64102;48.628;9.002;2023-08-12T08:27:23;96269.28;;;29.91;42.05
75521;BME280;64102;48.628;9.002;2023-08-12T08:29:48;96267.44;;;29.11;43.09
75521;BME280;64102;48.628;9.002;2023-08-12T08:32:14;96274.47;;;28.13;45.12
75521;BME280;64102;48.628;9.002;2023-08-12T08:34:39;96278.09;;;27.74;47.10
75521;BME280;64102;48.628;9.002;2023-08-12T08:37:04;96281.88;;;28.11;46.31
75521;BME280;64102;48.628;9.002;2023-08-12T08:39:30;96293.59;;;28.70;45.45
75521;BME280;64102;48.628;9.002;2023-08-12T08:41:56;96281.19;;;28.04;47.62
75521;BME280;64102;48.628;9.002;2023-08-12T08:44:23;96272.56;;;27.58;48.99
75521;BME280;64102;48.628;9.002;2023-08-12T08:46:52;96277.06;;;27.01;51.22
75521;BME280;64102;48.628;9.002;2023-08-12T08:49:19;96284.94;;;28.03;48.25
75521;BME280;64102;48.628;9.002;2023-08-12T08:51:46;96283.59;;;28.39;47.68
75521;BME280;64102;48.628;9.002;2023-08-12T08:54:12;96283.75;;;28.32;47.96
75521;BME280;64102;48.628;9.002;2023-08-12T08:56:37;96284.50;;;29.37;46.27
75521;BME280;64102;48.628;9.002;2023-08-12T08:59:03;96297.00;;;29.14;44.16
75521;BME280;64102;48.628;9.002;2023-08-12T09:01:29;96290.13;;;28.53;46.25
75521;BME280;64102;48.628;9.002;2023-08-12T09:03:57;96289.81;;;29.37;44.34
75521;BME280;64102;48.628;9.002;2023-08-12T09:06:24;96292.94;;;30.29;42.79
75521;BME280;64102;48.628;9.002;2023-08-12T09:08:51;96290.50;;;29.54;43.62
75521;BME280;64102;48.628;9.002;2023-08-12T09:11:18;96289.94;;;29.25;44.45
75521;BME280;64102;48.628;9.002;2023-08-12T09:13:44;96292.47;;;28.28;47.26
75521;BME280;64102;48.628;9.002;2023-08-12T09:16:10;96296.66;;;28.24;47.20
75521;BME280;64102;48.628;9.002;2023-08-12T09:18:37;96290.41;;;28.95;45.45
75521;BME280;64102;48.628;9.002;2023-08-12T09:21:03;96294.78;;;29.60;44.22
75521;BME280;64102;48.628;9.002;2023-08-12T09:23:42;96289.16;;;30.20;43.45
75521;BME280;64102;48.628;9.002;2023-08-12T09:26:14;96286.94;;;28.95;44.60
75521;BME280;64102;48.628;9.002;2023-08-12T09:28:41;96282.53;;;28.78;46.61
75521;BME280;64102;48.628;9.002;2023-08-12T09:31:06;96280.16;;;28.82;47.16
75521;BME280;64102;48.628;9.002;2023-08-12T09:33:32;96290.13;;;28.53;48.24
75521;BME280;64102;48.628;9.002;2023-08-12T09:35:57;96276.38;;;28.01;50.10
75521;BME280;64102;48.628;9.002;2023-08-12T09:38:23;96273.66;;;27.96;49.87
75521;BME280;64102;48.628;9.002;2023-08-12T09:40:48;96276.16;;;27.52;50.19
75521;BME280;64102;48.628;9.002;2023-08-12T09:43:14;96280.91;;;27.22;50.73
75521;BME280;64102;48.628;9.002;2023-08-12T09:45:44;96273.63;;;27.01;50.94
75521;BME280;64102;48.628;9.002;2023-08-12T09:48:10;96274.81;;;26.93;52.71
75521;BME280;64102;48.628;9.002;2023-08-12T09:50:35;96259.13;;;27.20;53.32
75521;BME280;64102;48.628;9.002;2023-08-12T09:53:01;96260.94;;;27.03;52.07
75521;BME280;64102;48.628;9.002;2023-08-12T09:55:29;96262.81;;;27.19;53.05
75521;BME280;64102;48.628;9.002;2023-08-12T09:57:58;96264.13;;;27.62;52.89
75521;BME280;64102;48.628;9.002;2023-08-12T10:00:24;96261.53;;;27.83;51.06
75521;BME280;64102;48.628;9.002;2023-08-12T10:02:51;96255.50;;;27.54;51.63
75521;BME280;64102;48.628;9.002;2023-08-12T10:05:26;96259.00;;;27.27;52.16
75521;BME280;64102;48.628;9.002;2023-08-12T10:07:53;96256.16;;;27.16;53.78
75521;BME280;64102;48.628;9.002;2023-08-12T10:10:18;96249.66;;;27.24;54.47
75521;BME280;64102;48.628;9.002;2023-08-12T10:12:45;96253.69;;;27.27;54.04
75521;BME280;64102;48.628;9.002;2023-08-12T10:15:11;96247.59;;;27.43;53.88
75521;BME280;64102;48.628;9.002;2023-08-12T10:17:36;96252.38;;;27.57;53.47
75521;BME280;64102;48.628;9.002;2023-08-12T10:20:06;96252.78;;;27.49;53.77
75521;BME280;64102;48.628;9.002;2023-08-12T10:22:35;96256.56;;;27.53;53.74
75521;BME280;64102;48.628;9.002;2023-08-12T10:25:02;96257.13;;;27.55;54.29
75521;BME280;64102;48.628;9.002;2023-08-12T10:27:29;96257.88;;;27.39;53.72
75521;BME280;64102;48.628;9.002;2023-08-12T10:29:58;96256.75;;;27.35;53.66
75521;BME280;64102;48.628;9.002;2023-08-12T10:32:24;96263.72;;;27.25;54.45
75521;BME280;64102;48.628;9.002;2023-08-12T10:34:59;96265.66;;;27.57;54.04
75521;BME280;64102;48.628;9.002;2023-08-12T10:37:26;96275.22;;;27.75;53.03
75521;BME280;64102;48.628;9.002;2023-08-12T10:39:52;96265.97;;;28.11;52.76
75521;BME280;64102;48.628;9.002;2023-08-12T10:42:41;96271.19;;;29.95;48.18
75521;BME280;64102;48.628;9.002;2023-08-12T10:45:14;96271.19;;;29.95;47.59
75521;BME280;64102;48.628;9.002;2023-08-12T10:47:47;96255.66;;;29.28;46.57
75521;BME280;64102;48.628;9.002;2023-08-12T10:50:21;96252.41;;;28.95;46.80
75521;BME280;64102;48.628;9.002;2023-08-12T10:52:47;96260.16;;;29.50;45.41
75521;BME280;64102;48.628;9.002;2023-08-12T10:55:24;96265.13;;;29.14;46.72
75521;BME280;64102;48.628;9.002;2023-08-12T10:57:52;96259.97;;;29.93;44.85
75521;BME280;64102;48.628;9.002;2023-08-12T11:00:26;96257.97;;;31.55;41.30
75521;BME280;64102;48.628;9.002;2023-08-12T11:02:53;96251.84;;;30.57;42.84
75521;BME280;64102;48.628;9.002;2023-08-12T11:05:19;96246.56;;;29.24;46.33
75521;BME280;64102;48.628;9.002;2023-08-12T11:07:46;96262.47;;;29.78;44.62
75521;BME280;64102;48.628;9.002;2023-08-12T11:10:14;96262.91;;;30.39;43.84
75521;BME280;64102;48.628;9.002;2023-08-12T11:12:48;96254.19;;;30.06;45.22
75521;BME280;64102;48.628;9.002;2023-08-12T11:15:14;96248.72;;;29.86;45.42
75521;BME280;64102;48.628;9.002;2023-08-12T11:17:40;96247.81;;;31.57;42.25
75521;BME280;64102;48.628;9.002;2023-08-12T11:20:09;96253.38;;;31.25;43.83
75521;BME280;64102;48.628;9.002;2023-08-12T11:22:40;96246.34;;;30.94;43.12
75521;BME280;64102;48.628;9.002;2023-08-12T11:25:08;96235.50;;;31.21;42.17
75521;BME280;64102;48.628;9.002;2023-08-12T11:27:42;96237.03;;;29.50;45.04
75521;BME280;64102;48.628;9.002;2023-08-12T11:30:09;96235.34;;;28.90;47.42
75521;BME280;64102;48.628;9.002;2023-08-12T11:32:37;96224.38;;;28.38;48.43
75521;BME280;64102;48.628;9.002;2023-08-12T11:35:03;96237.28;;;28.52;47.11
75521;BME280;64102;48.628;9.002;2023-08-12T11:37:31;96232.59;;;29.34;45.83
75521;BME280;64102;48.628;9.002;2023-08-12T11:39:56;96234.81;;;29.42;45.45
75521;BME280;64102;48.628;9.002;2023-08-12T11:42:21;96235.19;;;29.29;46.39
75521;BME280;64102;48.628;9.002;2023-08-12T11:44:47;96228.22;;;29.50;44.45
75521;BME280;64102;48.628;9.002;2023-08-12T11:47:12;96219.78;;;31.34;40.54
75521;BME280;64102;48.628;9.002;2023-08-12T11:49:38;96216.34;;;29.94;43.11
75521;BME280;64102;48.628;9.002;2023-08-12T11:52:04;96209.47;;;30.03;42.53
75521;BME280;64102;48.628;9.002;2023-08-12T11:54:29;96210.53;;;29.33;45.22
75521;BME280;64102;48.628;9.002;2023-08-12T11:56:55;96215.75;;;28.48;46.55
75521;BME280;64102;48.628;9.002;2023-08-12T11:59:22;96225.81;;;29.48;45.51
75521;BME280;64102;48.628;9.002;2023-08-12T12:01:50;96223.81;;;29.07;45.68
75521;BME280;64102;48.628;9.002;2023-08-12T12:04:16;96237.81;;;28.54;46.38
75521;BME280;64102;48.628;9.002;2023-08-12T12:06:46;96256.09;;;28.28;49.05
75521;BME280;64102;48.628;9.002;2023-08-12T12:09:12;96260.09;;;27.76;50.13
75521;BME280;64102;48.628;9.002;2023-08-12T12:11:39;96261.78;;;27.65;50.26
75521;BME280;64102;48.628;9.002;2023-08-12T12:14:07;96264.84;;;27.74;50.18
75521;BME280;64102;48.628;9.002;2023-08-12T12:16:44;96269.75;;;27.65;51.27
75521;BME280;64102;48.628;9.002;2023-08-12T12:19:20;96280.34;;;26.80;54.81
75521;BME280;64102;48.628;9.002;2023-08-12T12:21:50;96281.25;;;25.99;58.12
75521;BME280;64102;48.628;9.002;2023-08-12T12:24:16;96298.75;;;25.47;61.24
75521;BME280;64102;48.628;9.002;2023-08-12T12:26:43;96326.63;;;25.02;66.04
75521;BME280;64102;48.628;9.002;2023-08-12T12:29:09;96352.72;;;23.87;80.86
75521;BME280;64102;48.628;9.002;2023-08-12T12:31:37;96338.19;;;22.38;99.08
75521;BME280;64102;48.628;9.002;2023-08-12T12:34:03;96329.53;;;21.65;100.00
75521;BME280;64102;48.628;9.002;2023-08-12T12:36:32;96323.03;;;21.28;100.00
75521;BME280;64102;48.628;9.002;2023-08-12T12:38:59;96320.38;;;21.15;100.00
75521;BME280;64102;48.628;9.002;2023-08-12T12:41:24;96330.28;;;21.20;100.00
75521;BME280;64102;48.628;9.002;2023-08-12T12:43:49;96340.34;;;21.16;100.00
75521;BME280;64102;48.628;9.002;2023-08-12T12:46:15;96343.53;;;21.12;100.00
75521;BME280;64102;48.628;9.002;2023-08-12T12:48:42;96356.91;;;21.17;100.00
75521;BME280;64102;48.628;9.002;2023-08-12T12:51:07;96354.03;;;21.05;100.00
75521;BME280;64102;48.628;9.002;2023-08-12T12:53:33;96342.91;;;21.03;100.00
75521;BME280;64102;48.628;9.002;2023-08-12T12:55:59;96361.63;;;20.87;100.00